createdAt,value
2018-04-01T00:02:18.316Z,8.10
2018-04-01T00:04:45.833Z,8.50
2018-04-01T00:07:14.064Z,8.93
2018-04-01T00:09:41.535Z,9.23
2018-04-01T00:12:09.012Z,8.60
2018-04-01T00:14:37.253Z,9.13
2018-04-01T00:17:04.716Z,9.47
2018-04-01T00:19:32.200Z,11.53
2018-04-01T00:21:59.733Z,12.37
2018-04-01T00:24:27.192Z,12.10
2018-04-01T00:26:54.772Z,13.67
2018-04-01T00:29:23.652Z,13.20
2018-04-01T00:31:51.120Z,12.70
2018-04-01T00:34:20.120Z,13.43
2018-04-01T00:36:47.593Z,14.50
2018-04-01T00:39:15.840Z,17.10
2018-04-01T00:41:43.343Z,14.63
2018-04-01T00:44:10.804Z,14.17
2018-04-01T00:46:38.281Z,14.43
2018-04-01T00:49:05.827Z,14.03
2018-04-01T00:51:33.300Z,14.00
2018-04-01T00:54:00.769Z,13.23
2018-04-01T00:56:28.308Z,13.10
2018-04-01T00:58:55.782Z,11.93
2018-04-01T01:01:23.248Z,11.70
2018-04-01T01:03:50.736Z,11.47
2018-04-01T01:06:18.979Z,10.23
2018-04-01T01:08:46.445Z,9.40
2018-04-01T01:11:13.949Z,9.17
2018-04-01T01:13:41.416Z,8.67
2018-04-01T01:16:08.884Z,8.60
2018-04-01T01:18:36.363Z,9.33
2018-04-01T01:21:03.826Z,9.07
2018-04-01T01:23:31.297Z,11.87
2018-04-01T01:25:58.776Z,15.63
2018-04-01T01:28:27.009Z,13.07
2018-04-01T01:30:54.492Z,10.50
2018-04-01T01:33:21.985Z,10.77
2018-04-01T01:35:49.454Z,13.60
2018-04-01T01:38:16.922Z,12.30
2018-04-01T01:40:44.404Z,12.60
2018-04-01T01:43:11.884Z,11.10
2018-04-01T01:45:39.356Z,10.27
2018-04-01T01:48:07.625Z,9.60
2018-04-01T01:50:35.857Z,11.30
2018-04-01T01:53:03.357Z,11.30
2018-04-01T01:55:31.609Z,10.27
2018-04-01T01:57:59.088Z,9.37
2018-04-01T02:00:26.561Z,12.70
2018-04-01T02:02:54.799Z,9.60
2018-04-01T02:05:22.284Z,8.30
2018-04-01T02:07:50.523Z,7.47
2018-04-01T02:10:18.026Z,5.67
2018-04-01T02:12:46.268Z,4.80
2018-04-01T02:15:13.748Z,4.97
2018-04-01T02:17:41.229Z,5.90
2018-04-01T02:20:08.705Z,5.50
2018-04-01T02:22:36.185Z,5.97
2018-04-01T02:25:03.687Z,5.67
2018-04-01T02:27:31.921Z,3.90
2018-04-01T02:29:59.447Z,4.53
2018-04-01T02:32:26.938Z,3.90
2018-04-01T02:34:54.409Z,4.67
2018-04-01T02:37:21.873Z,3.77
2018-04-01T02:39:49.357Z,3.80
2018-04-01T02:42:17.584Z,3.43
2018-04-01T02:44:45.050Z,3.70
2018-04-01T02:47:14.054Z,3.57
2018-04-01T02:49:41.526Z,4.10
2018-04-01T02:52:09.776Z,3.70
2018-04-01T02:54:37.384Z,3.43
2018-04-01T02:57:04.848Z,4.33
2018-04-01T02:59:32.317Z,3.43
2018-04-01T03:01:59.800Z,3.73
2018-04-01T03:04:27.260Z,3.30
2018-04-01T03:06:54.793Z,3.50
2018-04-01T03:09:23.038Z,3.00
2018-04-01T03:11:51.312Z,3.77
2018-04-01T03:14:19.540Z,3.20
2018-04-01T03:16:47.024Z,3.10
2018-04-01T03:19:14.484Z,3.00
2018-04-01T03:21:42.718Z,3.00
2018-04-01T03:24:10.195Z,3.50
2018-04-01T03:26:37.663Z,3.60
2018-04-01T03:29:05.120Z,3.10
2018-04-01T03:31:32.606Z,3.53
2018-04-01T03:34:00.920Z,3.77
2018-04-01T03:36:28.387Z,3.57
2018-04-01T03:38:55.876Z,4.33
2018-04-01T03:41:23.358Z,3.80
2018-04-01T03:43:51.584Z,4.63
2018-04-01T03:46:19.073Z,7.00
2018-04-01T03:48:47.332Z,5.93
2018-04-01T03:51:15.586Z,3.90
2018-04-01T03:53:43.065Z,4.20
2018-04-01T03:56:10.530Z,4.10
2018-04-01T03:58:37.999Z,4.77
2018-04-01T04:01:06.274Z,3.90
2018-04-01T04:03:34.497Z,3.70
2018-04-01T04:06:01.961Z,4.70
2018-04-01T04:08:29.440Z,5.77
2018-04-01T04:10:56.918Z,6.10
2018-04-01T04:13:25.176Z,4.30
2018-04-01T04:15:52.657Z,4.37
2018-04-01T04:18:20.884Z,4.80
2018-04-01T04:20:48.352Z,5.20
2018-04-01T04:23:15.841Z,4.10
2018-04-01T04:25:43.307Z,3.40
2018-04-01T04:28:11.541Z,3.97
2018-04-01T04:30:39.025Z,4.50
2018-04-01T04:33:06.489Z,4.30
2018-04-01T04:35:34.816Z,4.43
2018-04-01T04:38:02.297Z,4.07
2018-04-01T04:40:29.769Z,4.60
2018-04-01T04:42:57.237Z,4.03
2018-04-01T04:45:24.737Z,4.00
2018-04-01T04:47:52.191Z,4.20
2018-04-01T04:50:19.661Z,4.03
2018-04-01T04:52:47.148Z,4.43
2018-04-01T04:55:14.612Z,4.10
2018-04-01T04:57:42.072Z,4.07
2018-04-01T05:00:09.567Z,3.80
2018-04-01T05:02:37.035Z,4.17
2018-04-01T05:05:04.507Z,3.50
2018-04-01T05:07:31.977Z,4.03
2018-04-01T05:09:59.448Z,3.87
2018-04-01T05:12:26.913Z,5.07
2018-04-01T05:14:54.428Z,4.60
2018-04-01T05:17:21.896Z,4.63
2018-04-01T05:19:49.366Z,4.90
2018-04-01T05:22:16.847Z,4.70
2018-04-01T05:24:44.313Z,4.60
2018-04-01T05:27:12.541Z,4.57
2018-04-01T05:29:40.019Z,5.63
2018-04-01T05:32:07.480Z,5.60
2018-04-01T05:34:34.947Z,5.63
2018-04-01T05:37:02.428Z,5.70
2018-04-01T05:39:30.669Z,5.10
2018-04-01T05:41:58.136Z,5.03
2018-04-01T05:44:25.621Z,5.20
2018-04-01T05:46:53.892Z,5.53
2018-04-01T05:49:22.122Z,5.67
2018-04-01T05:51:49.609Z,5.60
2018-04-01T05:54:17.078Z,5.97
2018-04-01T05:56:45.306Z,5.70
2018-04-01T05:59:12.787Z,6.40
2018-04-01T06:01:40.317Z,6.90
2018-04-01T06:04:07.784Z,6.30
2018-04-01T06:06:35.272Z,6.67
2018-04-01T06:09:02.734Z,5.53
2018-04-01T06:11:30.973Z,5.70
2018-04-01T06:13:58.460Z,6.70
2018-04-01T06:16:25.933Z,6.77
2018-04-01T06:18:54.213Z,6.70
2018-04-01T06:21:21.662Z,6.80
2018-04-01T06:23:49.956Z,6.77
2018-04-01T06:26:17.425Z,7.73
2018-04-01T06:28:44.899Z,6.90
2018-04-01T06:31:12.377Z,7.00
2018-04-01T06:33:39.832Z,7.90
2018-04-01T06:36:07.329Z,7.00
2018-04-01T06:38:35.562Z,7.33
2018-04-01T06:41:03.044Z,7.30
2018-04-01T06:43:30.516Z,8.47
2018-04-01T06:45:58.752Z,7.77
2018-04-01T06:48:26.233Z,7.87
2018-04-01T06:50:53.737Z,7.10
2018-04-01T06:53:21.197Z,8.27
2018-04-01T06:55:48.696Z,8.30
2018-04-01T06:58:16.178Z,8.20
2018-04-01T07:00:43.642Z,8.50
2018-04-01T07:03:11.891Z,8.50
2018-04-01T07:05:39.364Z,8.67
2018-04-01T07:08:06.832Z,9.60
2018-04-01T07:10:35.128Z,8.77
2018-04-01T07:13:02.599Z,10.03
2018-04-01T07:15:30.080Z,8.30
2018-04-01T07:17:57.554Z,10.97
2018-04-01T07:20:25.038Z,9.50
2018-04-01T07:22:53.280Z,8.60
2018-04-01T07:25:20.745Z,6.73
2018-04-01T07:27:48.334Z,5.17
2018-04-01T07:30:16.562Z,5.77
2018-04-01T07:32:44.105Z,7.80
2018-04-01T07:35:11.592Z,7.00
2018-04-01T07:37:39.068Z,7.10
2018-04-01T07:40:06.532Z,8.90
2018-04-01T07:42:34.781Z,4.90
2018-04-01T07:45:02.256Z,4.10
2018-04-01T07:47:29.722Z,3.93
2018-04-01T07:49:57.975Z,3.40
2018-04-01T07:52:25.441Z,3.40
2018-04-01T07:54:52.934Z,3.47
2018-04-01T07:57:20.397Z,3.30
2018-04-01T07:59:47.872Z,3.20
2018-04-01T08:02:15.353Z,3.37
2018-04-01T08:04:42.821Z,2.60
2018-04-01T08:07:10.293Z,3.07
2018-04-01T08:09:38.556Z,3.20
2018-04-01T08:12:06.021Z,2.80
2018-04-01T08:14:33.486Z,3.40
2018-04-01T08:17:01.003Z,3.00
2018-04-01T08:19:28.468Z,3.00
2018-04-01T08:21:55.932Z,2.70
2018-04-01T08:24:23.413Z,2.50
2018-04-01T08:26:50.896Z,3.40
2018-04-01T08:29:18.361Z,4.10
2018-04-01T08:31:45.841Z,3.93
2018-04-01T08:34:13.325Z,3.83
2018-04-01T08:36:40.802Z,3.70
2018-04-01T08:39:08.289Z,3.80
2018-04-01T08:41:35.763Z,4.13
2018-04-01T08:44:03.249Z,3.53
2018-04-01T08:46:30.729Z,3.90
2018-04-01T08:48:58.230Z,3.53
2018-04-01T08:51:26.530Z,3.80
2018-04-01T08:53:53.996Z,3.30
2018-04-01T08:56:21.528Z,3.87
2018-04-01T08:58:48.995Z,3.63
2018-04-01T09:01:16.460Z,3.53
2018-04-01T09:03:43.955Z,3.77
2018-04-01T09:06:11.421Z,3.80
2018-04-01T09:08:39.657Z,3.33
2018-04-01T09:11:07.151Z,3.57
2018-04-01T09:13:35.381Z,3.53
2018-04-01T09:16:02.862Z,4.00
2018-04-01T09:18:30.344Z,3.90
2018-04-01T09:20:57.837Z,4.10
2018-04-01T09:23:25.389Z,3.57
2018-04-01T09:25:52.881Z,3.77
2018-04-01T09:28:20.355Z,2.70
2018-04-01T09:30:47.841Z,3.50
2018-04-01T09:33:16.076Z,2.73
2018-04-01T09:35:43.545Z,1.70
2018-04-01T09:38:11.033Z,1.57
2018-04-01T09:40:39.261Z,1.77
2018-04-01T09:43:06.725Z,1.67
2018-04-01T09:45:34.212Z,1.30
2018-04-01T09:48:02.445Z,1.63
2018-04-01T09:50:29.916Z,1.40
2018-04-01T09:52:58.904Z,1.30
2018-04-01T09:55:26.380Z,1.23
2018-04-01T09:57:53.868Z,1.17
2018-04-01T10:00:26.364Z,1.10
2018-04-01T10:02:54.632Z,1.20
2018-04-01T10:05:22.896Z,1.37
2018-04-01T10:07:51.920Z,0.87
2018-04-01T10:10:20.226Z,1.30
2018-04-01T10:12:48.485Z,1.13
2018-04-01T10:15:16.735Z,0.97
2018-04-01T10:17:45.013Z,0.60
2018-04-01T10:20:13.301Z,0.90
2018-04-01T10:22:41.524Z,0.63
2018-04-01T10:25:09.797Z,1.10
2018-04-01T10:27:38.046Z,0.83
2018-04-01T10:30:06.300Z,0.67
2018-04-01T10:32:34.568Z,0.40
2018-04-01T10:35:02.824Z,0.27
2018-04-01T10:37:31.095Z,0.40
2018-04-01T10:40:00.141Z,0.30
2018-04-01T10:42:28.429Z,0.40
2018-04-01T10:44:56.685Z,0.40
2018-04-01T10:47:24.944Z,0.43
2018-04-01T10:49:53.216Z,0.30
2018-04-01T10:52:21.476Z,0.30
2018-04-01T10:54:48.946Z,0.30
2018-04-01T10:57:16.445Z,0.50
2018-04-01T10:59:43.910Z,0.50
2018-04-01T11:02:12.147Z,0.50
2018-04-01T11:04:39.625Z,0.20
2018-04-01T11:07:07.887Z,0.20
2018-04-01T11:09:35.344Z,0.20
2018-04-01T11:12:02.824Z,0.20
2018-04-01T11:14:30.293Z,0.30
2018-04-01T11:16:57.824Z,0.20
2018-04-01T11:19:26.024Z,0.20
2018-04-01T11:21:53.508Z,0.20
2018-04-01T11:24:21.736Z,0.30
2018-04-01T11:26:49.209Z,0.20
2018-04-01T11:29:16.689Z,0.20
2018-04-01T11:31:44.917Z,0.10
2018-04-01T11:34:12.401Z,0.20
2018-04-01T11:36:39.881Z,0.20
2018-04-01T11:39:08.112Z,0.20
2018-04-01T11:41:35.580Z,0.20
2018-04-01T11:44:03.072Z,0.20
2018-04-01T11:46:31.313Z,0.60
2018-04-01T11:48:58.789Z,0.60
2018-04-01T11:51:26.273Z,1.10
2018-04-01T11:53:54.510Z,1.03
2018-04-01T11:56:21.976Z,1.30
2018-04-01T11:58:49.456Z,1.37
2018-04-01T12:01:17.692Z,1.80
2018-04-01T12:03:45.180Z,2.10
2018-04-01T12:06:12.654Z,2.40
2018-04-01T12:08:40.909Z,2.03
2018-04-01T12:11:08.393Z,3.47
2018-04-01T12:13:35.864Z,2.40
2018-04-01T12:16:03.352Z,2.62
2018-04-01T12:18:30.818Z,2.70
2018-04-01T12:20:58.284Z,2.67
2018-04-01T12:23:26.535Z,2.40
2018-04-01T12:25:54.000Z,2.70
2018-04-01T12:28:21.480Z,1.80
2018-04-01T12:30:48.969Z,2.70
2018-04-01T12:33:16.466Z,2.83
2018-04-01T12:35:43.946Z,2.13
2018-04-01T12:38:11.431Z,2.93
2018-04-01T12:40:39.656Z,2.67
2018-04-01T12:43:07.117Z,2.97
2018-04-01T12:45:34.598Z,3.75
2018-04-01T12:48:02.076Z,2.80
2018-04-01T12:50:30.405Z,2.30
2018-04-01T12:52:57.875Z,3.50
2018-04-01T12:55:25.369Z,3.10
2018-04-01T12:57:53.614Z,2.80
2018-04-01T13:00:21.080Z,3.13
2018-04-01T13:02:48.583Z,2.40
2018-04-01T13:05:16.117Z,2.10
2018-04-01T13:07:44.376Z,2.40
2018-04-01T13:10:11.853Z,2.10
2018-04-01T13:12:40.087Z,5.40
2018-04-01T13:15:07.560Z,2.80
2018-04-01T13:17:35.029Z,2.70
2018-04-01T13:20:02.517Z,2.60
2018-04-01T13:22:29.973Z,2.30
2018-04-01T13:24:57.441Z,2.87
2018-04-01T13:27:24.921Z,3.20
2018-04-01T13:29:52.400Z,3.07
2018-04-01T13:32:19.882Z,3.63
2018-04-01T13:34:48.156Z,3.40
2018-04-01T13:37:16.390Z,3.30
2018-04-01T13:39:43.848Z,3.30
2018-04-01T13:42:11.333Z,2.93
2018-04-01T13:44:38.798Z,3.07
2018-04-01T13:47:06.285Z,3.47
2018-04-01T13:49:33.776Z,3.27
2018-04-01T13:52:01.242Z,3.17
2018-04-01T13:54:28.709Z,3.73
2018-04-01T13:56:56.198Z,3.40
2018-04-01T13:59:24.432Z,3.73
2018-04-01T14:01:51.921Z,4.35
2018-04-01T14:04:19.392Z,4.10
2018-04-01T14:06:47.657Z,4.30
2018-04-01T14:09:15.975Z,4.33
2018-04-01T14:11:43.537Z,5.13
2018-04-01T14:14:10.998Z,5.10
2018-04-01T14:16:38.476Z,4.43
2018-04-01T14:19:05.961Z,4.80
2018-04-01T14:21:33.445Z,5.57
2018-04-01T14:24:00.913Z,5.17
2018-04-01T14:26:28.379Z,5.10
2018-04-01T14:28:55.877Z,5.63
2018-04-01T14:31:23.395Z,5.17
2018-04-01T14:33:50.824Z,5.50
2018-04-01T14:36:18.297Z,5.50
2018-04-01T14:38:45.769Z,4.87
2018-04-01T14:41:13.269Z,5.67
2018-04-01T14:43:41.516Z,5.40
2018-04-01T14:46:08.992Z,5.60
2018-04-01T14:48:36.457Z,5.80
2018-04-01T14:51:04.565Z,6.10
2018-04-01T14:53:31.419Z,5.10
2018-04-01T14:55:58.879Z,4.70
2018-04-01T14:58:26.407Z,4.90
2018-04-01T15:00:53.838Z,4.60
2018-04-01T15:03:21.325Z,4.70
2018-04-01T15:05:49.554Z,5.83
2018-04-01T15:08:17.035Z,5.57
2018-04-01T15:10:44.556Z,5.67
2018-04-01T15:13:12.015Z,5.90
2018-04-01T15:15:39.497Z,6.63
2018-04-01T15:18:08.472Z,6.17
2018-04-01T15:20:35.933Z,5.47
2018-04-01T15:23:03.428Z,5.50
2018-04-01T15:25:30.901Z,5.47
2018-04-01T15:27:59.157Z,5.90
2018-04-01T15:30:26.620Z,6.40
2018-04-01T15:32:54.882Z,6.30
2018-04-01T15:35:22.384Z,6.17
2018-04-01T15:37:49.854Z,6.07
2018-04-01T15:40:17.345Z,6.13
2018-04-01T15:42:46.319Z,5.60
2018-04-01T15:45:13.788Z,5.90
2018-04-01T15:47:41.277Z,5.90
2018-04-01T15:50:09.542Z,6.00
2018-04-01T15:52:37.934Z,4.90
2018-04-01T15:55:06.197Z,5.70
2018-04-01T15:57:33.659Z,5.13
2018-04-01T16:00:01.128Z,4.50
2018-04-01T16:02:29.368Z,4.53
2018-04-01T16:04:57.849Z,4.93
2018-04-01T16:07:25.331Z,3.70
2018-04-01T16:09:52.807Z,4.50
2018-04-01T16:12:21.040Z,4.30
2018-04-01T16:14:48.525Z,3.20
2018-04-01T16:17:16.765Z,3.10
2018-04-01T16:19:44.265Z,3.80
2018-04-01T16:22:12.510Z,3.67
2018-04-01T16:24:39.974Z,3.83
2018-04-01T16:27:07.472Z,3.87
2018-04-01T16:29:34.944Z,4.20
2018-04-01T16:32:02.468Z,3.47
2018-04-01T16:34:30.769Z,4.97
2018-04-01T16:36:58.288Z,4.50
2018-04-01T16:39:25.781Z,4.30
2018-04-01T16:41:53.271Z,4.00
2018-04-01T16:44:20.766Z,4.63
2018-04-01T16:46:48.377Z,3.77
2018-04-01T16:49:15.979Z,3.60
2018-04-01T16:51:44.317Z,3.47
2018-04-01T16:54:11.924Z,4.33
2018-04-01T16:56:40.199Z,3.17
2018-04-01T16:59:07.709Z,4.10
2018-04-01T17:01:35.183Z,4.13
2018-04-01T17:04:02.669Z,3.77
2018-04-01T17:06:30.180Z,4.30
2018-04-01T17:08:57.713Z,4.00
2018-04-01T17:11:25.970Z,4.05
2018-04-01T17:13:54.228Z,3.77
2018-04-01T17:16:22.493Z,4.67
2018-04-01T17:18:49.978Z,5.03
2018-04-01T17:21:17.491Z,4.53
2018-04-01T17:23:44.957Z,4.43
2018-04-01T17:26:12.445Z,5.13
2018-04-01T17:28:39.961Z,5.40
2018-04-01T17:31:07.461Z,6.40
2018-04-01T17:33:35.729Z,7.07
2018-04-01T17:36:03.362Z,8.93
2018-04-01T17:38:30.877Z,5.80
2018-04-01T17:40:59.171Z,6.43
2018-04-01T17:43:26.911Z,6.90
2018-04-01T17:45:55.219Z,6.90
2018-04-01T17:48:22.714Z,7.40
2018-04-01T17:50:50.241Z,6.23
2018-04-01T17:53:17.704Z,7.27
2018-04-01T17:55:45.268Z,8.03
2018-04-01T17:58:13.109Z,8.10
2018-04-01T18:00:40.695Z,8.50
2018-04-01T18:03:08.277Z,9.40
2018-04-01T18:05:35.847Z,10.20
2018-04-01T18:08:04.473Z,9.80
2018-04-01T18:10:32.225Z,9.60
2018-04-01T18:12:59.738Z,15.53
2018-04-01T18:15:27.267Z,12.40
2018-04-01T18:17:55.009Z,14.10
2018-04-01T18:20:22.666Z,15.27
2018-04-01T18:22:50.249Z,11.50
2018-04-01T18:25:17.771Z,12.07
2018-04-01T18:27:45.343Z,11.80
2018-04-01T18:30:12.890Z,12.63
2018-04-01T18:32:40.900Z,11.83
2018-04-01T18:35:08.837Z,12.77
2018-04-01T18:37:36.467Z,12.40
2018-04-01T18:40:04.161Z,11.20
2018-04-01T18:42:31.777Z,11.03
2018-04-01T18:44:59.380Z,11.70
2018-04-01T18:47:27.153Z,9.93
2018-04-01T18:49:55.560Z,11.80
2018-04-01T18:52:23.120Z,12.50
2018-04-01T18:54:50.806Z,12.30
2018-04-01T18:57:18.847Z,11.77
2018-04-01T18:59:47.723Z,13.00
2018-04-01T19:02:15.893Z,12.13
2018-04-01T19:04:43.700Z,11.93
2018-04-01T19:07:11.541Z,15.57
2018-04-01T19:09:40.574Z,14.10
2018-04-01T19:12:10.091Z,13.37
2018-04-01T19:14:38.965Z,13.87
2018-04-01T19:17:09.530Z,20.03
2018-04-01T19:19:39.460Z,14.60
2018-04-01T19:22:10.974Z,16.42
2018-04-01T19:24:40.819Z,13.20
2018-04-01T19:27:10.629Z,15.20
2018-04-01T19:29:40.461Z,14.60
2018-04-01T19:32:10.371Z,14.27
2018-04-01T19:34:41.277Z,13.37
2018-04-01T19:37:11.099Z,14.00
2018-04-01T19:39:40.980Z,16.50
2018-04-01T19:42:11.549Z,14.53
2018-04-01T19:44:41.351Z,13.10
2018-04-01T19:47:11.173Z,13.17
2018-04-01T19:49:41.280Z,14.90
2018-04-01T19:52:11.218Z,14.63
2018-04-01T19:54:41.353Z,13.77
2018-04-01T19:57:11.183Z,13.40
2018-04-01T19:59:41.460Z,12.83
2018-04-01T20:02:11.220Z,12.30
2018-04-01T20:04:41.181Z,12.33
2018-04-01T20:07:11.145Z,13.98
2018-04-01T20:09:41.062Z,13.07
2018-04-01T20:12:10.981Z,12.35
2018-04-01T20:14:40.824Z,13.50
2018-04-01T20:17:11.465Z,13.40
2018-04-01T20:19:41.243Z,11.73
2018-04-01T20:22:11.656Z,12.85
2018-04-01T20:24:41.592Z,11.83
2018-04-01T20:27:11.486Z,13.37
2018-04-01T20:29:41.661Z,14.53
2018-04-01T20:32:11.524Z,19.17
2018-04-01T20:34:41.531Z,17.93
2018-04-01T20:37:11.449Z,16.47
2018-04-01T20:39:41.543Z,14.27
2018-04-01T20:42:12.515Z,14.43
2018-04-01T20:44:42.415Z,14.17
2018-04-01T20:47:12.157Z,13.97
2018-04-01T20:49:41.974Z,13.97
2018-04-01T20:52:11.811Z,13.57
2018-04-01T20:54:41.665Z,13.93
2018-04-01T20:57:11.617Z,12.87
2018-04-01T20:59:41.689Z,14.03
2018-04-01T21:02:12.338Z,15.27
2018-04-01T21:04:42.221Z,13.00
2018-04-01T21:07:13.431Z,13.20
2018-04-01T21:09:43.392Z,14.33
2018-04-01T21:12:13.752Z,12.57
2018-04-01T21:14:43.542Z,12.47
2018-04-01T21:17:13.420Z,12.95
2018-04-01T21:19:44.013Z,12.80
2018-04-01T21:22:13.446Z,12.80
2018-04-01T21:24:43.299Z,13.80
2018-04-01T21:27:13.895Z,12.97
2018-04-01T21:29:44.575Z,12.47
2018-04-01T21:32:14.092Z,12.50
2018-04-01T21:34:44.347Z,13.00
2018-04-01T21:37:14.492Z,12.80
2018-04-01T21:39:45.418Z,13.30
2018-04-01T21:42:14.969Z,12.60
2018-04-01T21:44:44.838Z,14.73
2018-04-01T21:47:14.778Z,16.63
2018-04-01T21:49:44.465Z,14.53
2018-04-01T21:52:13.067Z,15.97
2018-04-01T21:54:41.862Z,16.47
2018-04-01T21:57:10.313Z,16.02
2018-04-01T21:59:39.344Z,15.10
2018-04-01T22:02:07.692Z,13.77
2018-04-01T22:04:35.953Z,14.37
2018-04-01T22:07:05.055Z,12.20
2018-04-01T22:09:34.078Z,13.40
2018-04-01T22:12:02.353Z,13.10
2018-04-01T22:14:30.641Z,11.77
2018-04-01T22:16:58.912Z,13.63
2018-04-01T22:19:27.200Z,14.00
2018-04-01T22:21:55.459Z,13.37
2018-04-01T22:24:23.737Z,13.17
2018-04-01T22:26:52.040Z,12.63
2018-04-01T22:29:20.312Z,13.17
2018-04-01T22:31:48.571Z,14.77
2018-04-01T22:34:16.897Z,15.53
2018-04-01T22:36:45.149Z,12.30
2018-04-01T22:39:13.412Z,13.97
2018-04-01T22:41:41.692Z,13.27
2018-04-01T22:44:09.959Z,13.80
2018-04-01T22:46:38.232Z,14.63
2018-04-01T22:49:06.507Z,11.77
2018-04-01T22:51:34.785Z,13.70
2018-04-01T22:54:03.160Z,13.90
2018-04-01T22:56:31.436Z,14.43
2018-04-01T22:58:59.721Z,12.00
2018-04-01T23:01:27.989Z,13.70
2018-04-01T23:03:56.265Z,15.27
2018-04-01T23:06:24.555Z,16.50
2018-04-01T23:08:52.818Z,18.50
2018-04-01T23:11:21.092Z,16.43
2018-04-01T23:13:49.391Z,16.00
2018-04-01T23:16:17.665Z,15.10
2018-04-01T23:18:45.939Z,13.17
2018-04-01T23:21:14.240Z,14.30
2018-04-01T23:23:43.283Z,14.50
2018-04-01T23:26:11.557Z,13.53
2018-04-01T23:28:39.838Z,12.23
2018-04-01T23:31:08.112Z,13.07
2018-04-01T23:33:36.372Z,13.93
2018-04-01T23:36:04.657Z,12.83
2018-04-01T23:38:32.908Z,14.03
2018-04-01T23:41:01.951Z,13.20
2018-04-01T23:43:30.248Z,13.67
2018-04-01T23:45:58.597Z,14.30
2018-04-01T23:48:26.888Z,13.87
2018-04-01T23:50:55.176Z,13.90
2018-04-01T23:53:23.439Z,14.53
2018-04-01T23:55:51.708Z,15.90
2018-04-01T23:58:19.983Z,15.03
